createdAt,value
2019-02-27T04:35:48.778Z,99.90
2019-02-27T04:38:17.869Z,99.90
2019-02-27T04:40:49.645Z,99.90
2019-02-27T04:43:18.482Z,99.90
2019-02-27T04:45:49.382Z,99.90
2019-02-27T04:48:18.644Z,99.90
2019-02-27T04:50:47.157Z,99.90
2019-02-27T04:53:15.796Z,99.90
2019-02-27T04:55:44.811Z,99.90
2019-02-27T04:58:13.985Z,99.70
2019-02-27T05:00:42.807Z,99.20
2019-02-27T05:03:11.744Z,99.00
2019-02-27T05:05:41.399Z,98.80
2019-02-27T05:08:10.885Z,98.10
2019-02-27T05:10:40.543Z,97.90
2019-02-27T05:13:10.924Z,97.70
2019-02-27T05:15:43.020Z,97.70
2019-02-27T05:18:11.671Z,97.80
2019-02-27T05:20:44.904Z,98.00
2019-02-27T05:23:11.149Z,97.80
2019-02-27T05:25:41.326Z,97.60
2019-02-27T05:28:10.123Z,97.60
2019-02-27T05:30:38.862Z,97.80
2019-02-27T05:33:07.657Z,97.60
2019-02-27T05:35:36.637Z,97.60
2019-02-27T05:38:05.709Z,97.60
2019-02-27T05:40:34.387Z,97.40
2019-02-27T05:43:47.716Z,97.70
2019-02-27T05:46:45.726Z,97.50
2019-02-27T05:49:51.556Z,97.50
2019-02-27T05:52:42.324Z,97.30
2019-02-27T05:55:50.136Z,97.60
2019-02-27T05:58:36.635Z,97.90
2019-02-27T06:01:24.120Z,98.50
2019-02-27T06:04:06.256Z,98.50
2019-02-27T06:07:11.541Z,98.40
2019-02-27T06:10:06.575Z,98.40
2019-02-27T06:12:57.798Z,98.60
2019-02-27T06:15:45.950Z,98.70
2019-02-27T06:18:41.907Z,98.50
2019-02-27T06:21:41.737Z,98.90
2019-02-27T06:25:21.386Z,99.00
2019-02-27T06:28:25.293Z,99.00
2019-02-27T06:31:41.800Z,98.60
2019-02-27T06:34:29.402Z,98.50
2019-02-27T06:36:58.067Z,98.60
2019-02-27T06:39:27.630Z,97.60
2019-02-27T06:41:56.527Z,98.40
